sensor_id;sensor_type;location;lat;lon;timestamp;temperature;humidity
75363;DHT22;64122;51.988;5.892;2023-02-28T00:00:12;4.43;58.33
75363;DHT22;64122;51.988;5.892;2023-02-28T00:02:43;4.51;58.19
75363;DHT22;64122;51.988;5.892;2023-02-28T00:05:14;4.59;57.97
75363;DHT22;64122;51.988;5.892;2023-02-28T00:07:45;4.65;57.79
75363;DHT22;64122;51.988;5.892;2023-02-28T00:10:16;4.74;57.71
75363;DHT22;64122;51.988;5.892;2023-02-28T00:12:47;4.81;57.52
75363;DHT22;64122;51.988;5.892;2023-02-28T00:15:19;4.90;57.15
75363;DHT22;64122;51.988;5.892;2023-02-28T00:17:49;4.96;56.84
75363;DHT22;64122;51.988;5.892;2023-02-28T00:20:19;5.04;56.56
75363;DHT22;64122;51.988;5.892;2023-02-28T00:22:50;5.08;56.49
75363;DHT22;64122;51.988;5.892;2023-02-28T00:25:21;5.07;56.39
75363;DHT22;64122;51.988;5.892;2023-02-28T00:27:51;5.08;56.52
75363;DHT22;64122;51.988;5.892;2023-02-28T00:30:23;5.11;56.48
75363;DHT22;64122;51.988;5.892;2023-02-28T00:32:54;5.12;56.55
75363;DHT22;64122;51.988;5.892;2023-02-28T00:35:25;5.16;56.38
75363;DHT22;64122;51.988;5.892;2023-02-28T00:37:55;5.16;56.31
75363;DHT22;64122;51.988;5.892;2023-02-28T00:40:24;5.20;56.13
75363;DHT22;64122;51.988;5.892;2023-02-28T00:42:53;5.22;56.01
75363;DHT22;64122;51.988;5.892;2023-02-28T00:45:25;5.26;55.83
75363;DHT22;64122;51.988;5.892;2023-02-28T00:47:54;5.28;55.76
75363;DHT22;64122;51.988;5.892;2023-02-28T00:50:24;5.25;55.76
75363;DHT22;64122;51.988;5.892;2023-02-28T00:52:53;5.25;55.84
75363;DHT22;64122;51.988;5.892;2023-02-28T00:55:22;5.24;55.76
75363;DHT22;64122;51.988;5.892;2023-02-28T00:57:51;5.25;55.61
75363;DHT22;64122;51.988;5.892;2023-02-28T01:00:21;5.27;55.59
75363;DHT22;64122;51.988;5.892;2023-02-28T01:02:53;5.30;55.52
75363;DHT22;64122;51.988;5.892;2023-02-28T01:05:22;5.33;55.44
75363;DHT22;64122;51.988;5.892;2023-02-28T01:07:51;5.34;55.31
75363;DHT22;64122;51.988;5.892;2023-02-28T01:10:21;5.35;55.20
75363;DHT22;64122;51.988;5.892;2023-02-28T01:12:50;5.33;55.18
75363;DHT22;64122;51.988;5.892;2023-02-28T01:15:19;5.35;55.23
75363;DHT22;64122;51.988;5.892;2023-02-28T01:17:48;5.33;55.13
75363;DHT22;64122;51.988;5.892;2023-02-28T01:20:21;5.35;55.17
75363;DHT22;64122;51.988;5.892;2023-02-28T01:22:50;5.35;55.15
75363;DHT22;64122;51.988;5.892;2023-02-28T01:25:19;5.36;55.25
75363;DHT22;64122;51.988;5.892;2023-02-28T01:27:49;5.28;55.47
75363;DHT22;64122;51.988;5.892;2023-02-28T01:30:19;5.27;55.61
75363;DHT22;64122;51.988;5.892;2023-02-28T01:32:48;5.26;55.76
75363;DHT22;64122;51.988;5.892;2023-02-28T01:35:22;5.24;55.75
75363;DHT22;64122;51.988;5.892;2023-02-28T01:37:51;5.22;55.94
75363;DHT22;64122;51.988;5.892;2023-02-28T01:40:20;5.21;55.97
75363;DHT22;64122;51.988;5.892;2023-02-28T01:42:50;5.22;56.08
75363;DHT22;64122;51.988;5.892;2023-02-28T01:45:22;5.20;56.06
75363;DHT22;64122;51.988;5.892;2023-02-28T01:47:57;5.16;56.32
75363;DHT22;64122;51.988;5.892;2023-02-28T01:50:32;5.17;56.23
75363;DHT22;64122;51.988;5.892;2023-02-28T01:53:08;5.18;56.26
75363;DHT22;64122;51.988;5.892;2023-02-28T01:55:42;5.17;56.37
75363;DHT22;64122;51.988;5.892;2023-02-28T01:58:14;5.16;56.39
75363;DHT22;64122;51.988;5.892;2023-02-28T02:00:46;5.17;56.41
75363;DHT22;64122;51.988;5.892;2023-02-28T02:03:17;5.19;56.38
75363;DHT22;64122;51.988;5.892;2023-02-28T02:05:50;5.23;56.25
75363;DHT22;64122;51.988;5.892;2023-02-28T02:08:23;5.21;56.29
75363;DHT22;64122;51.988;5.892;2023-02-28T02:10:54;5.22;56.42
75363;DHT22;64122;51.988;5.892;2023-02-28T02:13:42;5.25;56.03
75363;DHT22;64122;51.988;5.892;2023-02-28T02:16:25;5.25;56.10
75363;DHT22;64122;51.988;5.892;2023-02-28T02:19:01;5.28;56.01
75363;DHT22;64122;51.988;5.892;2023-02-28T02:22:04;5.31;55.81
75363;DHT22;64122;51.988;5.892;2023-02-28T02:24:58;5.32;55.78
75363;DHT22;64122;51.988;5.892;2023-02-28T02:27:59;5.34;55.71
75363;DHT22;64122;51.988;5.892;2023-02-28T02:30:58;5.36;55.69
75363;DHT22;64122;51.988;5.892;2023-02-28T02:36:49;5.38;55.48
75363;DHT22;64122;51.988;5.892;2023-02-28T02:39:27;5.40;55.45
75363;DHT22;64122;51.988;5.892;2023-02-28T02:42:01;5.40;55.44
75363;DHT22;64122;51.988;5.892;2023-02-28T02:44:37;5.41;55.33
75363;DHT22;64122;51.988;5.892;2023-02-28T02:47:13;5.43;55.27
75363;DHT22;64122;51.988;5.892;2023-02-28T02:49:47;5.47;55.18
75363;DHT22;64122;51.988;5.892;2023-02-28T02:52:27;5.47;54.52
75363;DHT22;64122;51.988;5.892;2023-02-28T02:54:59;5.47;54.64
75363;DHT22;64122;51.988;5.892;2023-02-28T02:57:35;5.50;54.24
75363;DHT22;64122;51.988;5.892;2023-02-28T03:00:07;5.47;54.00
75363;DHT22;64122;51.988;5.892;2023-02-28T03:02:38;5.49;53.83
75363;DHT22;64122;51.988;5.892;2023-02-28T03:05:17;5.50;53.60
75363;DHT22;64122;51.988;5.892;2023-02-28T03:07:50;5.53;53.53
75363;DHT22;64122;51.988;5.892;2023-02-28T03:10:32;5.54;53.40
75363;DHT22;64122;51.988;5.892;2023-02-28T03:13:34;5.52;53.40
75363;DHT22;64122;51.988;5.892;2023-02-28T03:16:34;5.52;53.23
75363;DHT22;64122;51.988;5.892;2023-02-28T03:19:23;5.54;53.14
75363;DHT22;64122;51.988;5.892;2023-02-28T03:22:14;5.57;52.94
75363;DHT22;64122;51.988;5.892;2023-02-28T03:24:53;5.60;52.73
75363;DHT22;64122;51.988;5.892;2023-02-28T03:27:29;5.62;52.43
75363;DHT22;64122;51.988;5.892;2023-02-28T03:30:00;5.62;52.33
75363;DHT22;64122;51.988;5.892;2023-02-28T03:32:36;5.63;51.99
75363;DHT22;64122;51.988;5.892;2023-02-28T03:35:10;5.62;51.86
75363;DHT22;64122;51.988;5.892;2023-02-28T03:37:43;5.60;51.96
75363;DHT22;64122;51.988;5.892;2023-02-28T03:40:18;5.59;52.08
75363;DHT22;64122;51.988;5.892;2023-02-28T03:42:50;5.59;51.17
75363;DHT22;64122;51.988;5.892;2023-02-28T03:45:24;5.57;51.18
75363;DHT22;64122;51.988;5.892;2023-02-28T03:47:58;5.55;50.78
75363;DHT22;64122;51.988;5.892;2023-02-28T03:50:35;5.57;50.55
75363;DHT22;64122;51.988;5.892;2023-02-28T03:53:10;5.54;49.79
75363;DHT22;64122;51.988;5.892;2023-02-28T03:55:45;5.53;49.11
75363;DHT22;64122;51.988;5.892;2023-02-28T03:58:21;5.50;49.36
75363;DHT22;64122;51.988;5.892;2023-02-28T04:00:56;5.46;48.94
75363;DHT22;64122;51.988;5.892;2023-02-28T04:03:26;5.40;48.22
75363;DHT22;64122;51.988;5.892;2023-02-28T04:05:57;5.40;48.45
75363;DHT22;64122;51.988;5.892;2023-02-28T04:08:27;5.37;48.37
75363;DHT22;64122;51.988;5.892;2023-02-28T04:11:01;5.36;48.14
75363;DHT22;64122;51.988;5.892;2023-02-28T04:13:35;5.36;48.18
75363;DHT22;64122;51.988;5.892;2023-02-28T04:16:06;5.39;47.91
75363;DHT22;64122;51.988;5.892;2023-02-28T04:18:38;5.38;47.93
75363;DHT22;64122;51.988;5.892;2023-02-28T04:21:09;5.36;48.06
75363;DHT22;64122;51.988;5.892;2023-02-28T04:23:39;5.28;48.05
75363;DHT22;64122;51.988;5.892;2023-02-28T04:26:10;5.23;48.19
75363;DHT22;64122;51.988;5.892;2023-02-28T04:28:40;5.13;48.46
75363;DHT22;64122;51.988;5.892;2023-02-28T04:31:09;5.09;48.70
75363;DHT22;64122;51.988;5.892;2023-02-28T04:33:39;5.04;49.15
75363;DHT22;64122;51.988;5.892;2023-02-28T04:36:08;4.94;49.61
75363;DHT22;64122;51.988;5.892;2023-02-28T04:38:39;4.86;50.18
75363;DHT22;64122;51.988;5.892;2023-02-28T04:41:11;4.73;50.73
75363;DHT22;64122;51.988;5.892;2023-02-28T04:43:40;4.64;51.24
75363;DHT22;64122;51.988;5.892;2023-02-28T04:46:09;4.63;51.47
75363;DHT22;64122;51.988;5.892;2023-02-28T04:48:39;4.58;51.94
75363;DHT22;64122;51.988;5.892;2023-02-28T04:51:12;4.52;52.37
75363;DHT22;64122;51.988;5.892;2023-02-28T04:53:42;4.51;52.67
75363;DHT22;64122;51.988;5.892;2023-02-28T04:56:16;4.47;52.97
75363;DHT22;64122;51.988;5.892;2023-02-28T04:58:46;4.44;53.34
75363;DHT22;64122;51.988;5.892;2023-02-28T05:01:18;4.41;53.58
75363;DHT22;64122;51.988;5.892;2023-02-28T05:03:48;4.37;53.88
75363;DHT22;64122;51.988;5.892;2023-02-28T05:06:18;4.32;54.07
75363;DHT22;64122;51.988;5.892;2023-02-28T05:08:50;4.27;54.37
75363;DHT22;64122;51.988;5.892;2023-02-28T05:11:24;4.26;54.38
75363;DHT22;64122;51.988;5.892;2023-02-28T05:13:55;4.24;54.52
75363;DHT22;64122;51.988;5.892;2023-02-28T05:16:24;4.18;54.86
75363;DHT22;64122;51.988;5.892;2023-02-28T05:18:53;4.16;54.94
75363;DHT22;64122;51.988;5.892;2023-02-28T05:21:25;4.15;54.98
75363;DHT22;64122;51.988;5.892;2023-02-28T05:23:58;4.12;55.14
75363;DHT22;64122;51.988;5.892;2023-02-28T05:26:30;4.09;55.21
75363;DHT22;64122;51.988;5.892;2023-02-28T05:28:59;4.08;55.37
75363;DHT22;64122;51.988;5.892;2023-02-28T05:31:29;4.07;55.45
75363;DHT22;64122;51.988;5.892;2023-02-28T05:33:58;4.01;55.80
75363;DHT22;64122;51.988;5.892;2023-02-28T05:36:27;3.99;55.87
75363;DHT22;64122;51.988;5.892;2023-02-28T05:38:57;3.98;55.96
75363;DHT22;64122;51.988;5.892;2023-02-28T05:41:26;3.94;56.16
75363;DHT22;64122;51.988;5.892;2023-02-28T05:43:58;3.91;56.25
75363;DHT22;64122;51.988;5.892;2023-02-28T05:46:28;3.86;56.70
75363;DHT22;64122;51.988;5.892;2023-02-28T05:48:57;3.82;56.97
75363;DHT22;64122;51.988;5.892;2023-02-28T05:51:27;3.82;57.06
75363;DHT22;64122;51.988;5.892;2023-02-28T05:53:59;3.85;56.91
75363;DHT22;64122;51.988;5.892;2023-02-28T05:56:28;3.89;56.82
75363;DHT22;64122;51.988;5.892;2023-02-28T05:59:00;3.94;56.53
75363;DHT22;64122;51.988;5.892;2023-02-28T06:01:34;3.93;56.64
75363;DHT22;64122;51.988;5.892;2023-02-28T06:04:05;3.93;56.67
75363;DHT22;64122;51.988;5.892;2023-02-28T06:06:35;3.94;56.66
75363;DHT22;64122;51.988;5.892;2023-02-28T06:09:05;3.98;56.59
75363;DHT22;64122;51.988;5.892;2023-02-28T06:11:34;4.02;56.47
75363;DHT22;64122;51.988;5.892;2023-02-28T06:14:06;4.10;56.16
75363;DHT22;64122;51.988;5.892;2023-02-28T06:16:36;4.14;56.09
75363;DHT22;64122;51.988;5.892;2023-02-28T06:19:05;4.19;55.92
75363;DHT22;64122;51.988;5.892;2023-02-28T06:21:34;4.27;55.71
75363;DHT22;64122;51.988;5.892;2023-02-28T06:24:04;4.37;55.45
75363;DHT22;64122;51.988;5.892;2023-02-28T06:26:34;4.47;55.04
75363;DHT22;64122;51.988;5.892;2023-02-28T06:29:06;4.54;54.81
75363;DHT22;64122;51.988;5.892;2023-02-28T06:31:35;4.61;54.36
75363;DHT22;64122;51.988;5.892;2023-02-28T06:34:04;4.67;54.01
75363;DHT22;64122;51.988;5.892;2023-02-28T06:36:34;4.79;53.71
75363;DHT22;64122;51.988;5.892;2023-02-28T06:39:03;4.86;53.28
75363;DHT22;64122;51.988;5.892;2023-02-28T06:41:32;4.94;52.36
75363;DHT22;64122;51.988;5.892;2023-02-28T06:44:14;4.95;52.24
75363;DHT22;64122;51.988;5.892;2023-02-28T06:46:45;4.96;51.79
75363;DHT22;64122;51.988;5.892;2023-02-28T06:49:14;5.05;51.67
75363;DHT22;64122;51.988;5.892;2023-02-28T06:51:44;5.16;51.22
75363;DHT22;64122;51.988;5.892;2023-02-28T06:54:14;5.23;50.95
75363;DHT22;64122;51.988;5.892;2023-02-28T06:56:43;5.28;50.77
75363;DHT22;64122;51.988;5.892;2023-02-28T06:59:15;5.34;50.53
75363;DHT22;64122;51.988;5.892;2023-02-28T07:01:45;5.36;50.36
75363;DHT22;64122;51.988;5.892;2023-02-28T07:04:14;5.42;50.18
75363;DHT22;64122;51.988;5.892;2023-02-28T07:06:43;5.50;50.08
75363;DHT22;64122;51.988;5.892;2023-02-28T07:09:12;5.54;49.90
75363;DHT22;64122;51.988;5.892;2023-02-28T07:11:42;5.60;49.54
75363;DHT22;64122;51.988;5.892;2023-02-28T07:14:11;5.65;49.35
75363;DHT22;64122;51.988;5.892;2023-02-28T07:16:43;5.65;48.95
75363;DHT22;64122;51.988;5.892;2023-02-28T07:19:13;5.70;48.79
75363;DHT22;64122;51.988;5.892;2023-02-28T07:21:42;5.79;48.57
75363;DHT22;64122;51.988;5.892;2023-02-28T07:24:12;5.76;47.83
75363;DHT22;64122;51.988;5.892;2023-02-28T07:26:41;5.78;47.69
75363;DHT22;64122;51.988;5.892;2023-02-28T07:29:11;5.72;47.64
75363;DHT22;64122;51.988;5.892;2023-02-28T07:31:42;5.72;47.56
75363;DHT22;64122;51.988;5.892;2023-02-28T07:34:12;5.78;47.76
75363;DHT22;64122;51.988;5.892;2023-02-28T07:36:42;5.78;47.64
75363;DHT22;64122;51.988;5.892;2023-02-28T07:39:11;5.79;47.72
75363;DHT22;64122;51.988;5.892;2023-02-28T07:41:40;5.83;47.70
75363;DHT22;64122;51.988;5.892;2023-02-28T07:44:10;5.97;47.33
75363;DHT22;64122;51.988;5.892;2023-02-28T07:46:39;6.20;46.70
75363;DHT22;64122;51.988;5.892;2023-02-28T07:49:11;6.41;45.83
75363;DHT22;64122;51.988;5.892;2023-02-28T07:51:40;6.52;45.85
75363;DHT22;64122;51.988;5.892;2023-02-28T07:54:10;6.65;45.16
75363;DHT22;64122;51.988;5.892;2023-02-28T07:56:39;6.65;44.99
75363;DHT22;64122;51.988;5.892;2023-02-28T07:59:08;6.55;45.16
75363;DHT22;64122;51.988;5.892;2023-02-28T08:01:38;6.33;45.73
75363;DHT22;64122;51.988;5.892;2023-02-28T08:04:07;6.19;45.90
75363;DHT22;64122;51.988;5.892;2023-02-28T08:06:39;6.06;45.82
75363;DHT22;64122;51.988;5.892;2023-02-28T08:09:08;5.99;45.51
75363;DHT22;64122;51.988;5.892;2023-02-28T08:11:37;5.99;45.25
75363;DHT22;64122;51.988;5.892;2023-02-28T08:14:06;5.98;44.97
75363;DHT22;64122;51.988;5.892;2023-02-28T08:16:36;5.99;44.73
75363;DHT22;64122;51.988;5.892;2023-02-28T08:19:05;6.16;44.30
75363;DHT22;64122;51.988;5.892;2023-02-28T08:21:34;8.00;39.69
75363;DHT22;64122;51.988;5.892;2023-02-28T08:24:06;10.84;34.55
75363;DHT22;64122;51.988;5.892;2023-02-28T08:26:36;12.79;31.24
75363;DHT22;64122;51.988;5.892;2023-02-28T08:29:05;13.83;29.01
75363;DHT22;64122;51.988;5.892;2023-02-28T08:31:34;14.74;27.09
75363;DHT22;64122;51.988;5.892;2023-02-28T08:34:05;15.69;25.71
75363;DHT22;64122;51.988;5.892;2023-02-28T08:36:35;16.25;24.14
75363;DHT22;64122;51.988;5.892;2023-02-28T08:39:07;16.61;23.62
75363;DHT22;64122;51.988;5.892;2023-02-28T08:41:36;16.95;22.89
75363;DHT22;64122;51.988;5.892;2023-02-28T08:44:05;17.32;22.16
75363;DHT22;64122;51.988;5.892;2023-02-28T08:46:35;17.59;21.89
75363;DHT22;64122;51.988;5.892;2023-02-28T08:49:04;17.29;21.73
75363;DHT22;64122;51.988;5.892;2023-02-28T08:51:33;17.56;21.34
75363;DHT22;64122;51.988;5.892;2023-02-28T08:54:03;17.80;20.40
75363;DHT22;64122;51.988;5.892;2023-02-28T08:56:35;17.88;20.24
75363;DHT22;64122;51.988;5.892;2023-02-28T08:59:04;17.97;19.84
75363;DHT22;64122;51.988;5.892;2023-02-28T09:01:33;17.94;20.10
75363;DHT22;64122;51.988;5.892;2023-02-28T09:04:02;18.14;19.86
75363;DHT22;64122;51.988;5.892;2023-02-28T09:06:37;17.84;19.16
75363;DHT22;64122;51.988;5.892;2023-02-28T09:09:06;16.88;19.89
75363;DHT22;64122;51.988;5.892;2023-02-28T09:11:38;16.86;20.23
75363;DHT22;64122;51.988;5.892;2023-02-28T09:14:07;17.34;19.47
75363;DHT22;64122;51.988;5.892;2023-02-28T09:16:37;17.37;19.70
75363;DHT22;64122;51.988;5.892;2023-02-28T09:19:06;17.34;19.67
75363;DHT22;64122;51.988;5.892;2023-02-28T09:21:36;17.29;20.13
75363;DHT22;64122;51.988;5.892;2023-02-28T09:24:06;17.07;19.59
75363;DHT22;64122;51.988;5.892;2023-02-28T09:26:40;17.00;19.28
75363;DHT22;64122;51.988;5.892;2023-02-28T09:29:09;16.46;19.55
75363;DHT22;64122;51.988;5.892;2023-02-28T09:31:39;16.75;19.30
75363;DHT22;64122;51.988;5.892;2023-02-28T09:34:08;16.95;18.87
75363;DHT22;64122;51.988;5.892;2023-02-28T09:36:37;16.64;19.22
75363;DHT22;64122;51.988;5.892;2023-02-28T09:39:06;16.42;19.23
75363;DHT22;64122;51.988;5.892;2023-02-28T09:41:42;16.20;19.25
75363;DHT22;64122;51.988;5.892;2023-02-28T09:44:20;15.88;19.58
75363;DHT22;64122;51.988;5.892;2023-02-28T09:46:55;15.38;20.30
75363;DHT22;64122;51.988;5.892;2023-02-28T09:53:02;14.43;21.39
75363;DHT22;64122;51.988;5.892;2023-02-28T09:55:55;14.29;22.14
75363;DHT22;64122;51.988;5.892;2023-02-28T09:58:31;14.00;22.37
75363;DHT22;64122;51.988;5.892;2023-02-28T10:01:09;13.53;22.78
75363;DHT22;64122;51.988;5.892;2023-02-28T10:03:44;13.11;23.40
75363;DHT22;64122;51.988;5.892;2023-02-28T10:06:17;12.63;24.45
75363;DHT22;64122;51.988;5.892;2023-02-28T10:08:52;12.20;25.39
75363;DHT22;64122;51.988;5.892;2023-02-28T10:11:25;11.91;25.79
75363;DHT22;64122;51.988;5.892;2023-02-28T10:14:00;11.67;26.09
75363;DHT22;64122;51.988;5.892;2023-02-28T10:16:35;11.19;26.17
75363;DHT22;64122;51.988;5.892;2023-02-28T10:19:10;10.72;26.58
75363;DHT22;64122;51.988;5.892;2023-02-28T10:21:46;10.49;27.13
75363;DHT22;64122;51.988;5.892;2023-02-28T10:24:21;10.18;27.13
75363;DHT22;64122;51.988;5.892;2023-02-28T10:26:52;9.97;27.45
75363;DHT22;64122;51.988;5.892;2023-02-28T10:29:31;9.82;28.21
75363;DHT22;64122;51.988;5.892;2023-02-28T10:32:03;9.80;28.13
75363;DHT22;64122;51.988;5.892;2023-02-28T10:34:32;9.86;27.78
75363;DHT22;64122;51.988;5.892;2023-02-28T10:37:03;9.91;27.75
75363;DHT22;64122;51.988;5.892;2023-02-28T10:39:38;10.01;27.71
75363;DHT22;64122;51.988;5.892;2023-02-28T10:42:25;9.97;28.02
75363;DHT22;64122;51.988;5.892;2023-02-28T10:45:12;9.98;28.01
75363;DHT22;64122;51.988;5.892;2023-02-28T10:47:53;9.93;28.15
75363;DHT22;64122;51.988;5.892;2023-02-28T10:50:33;9.95;28.22
75363;DHT22;64122;51.988;5.892;2023-02-28T10:53:28;9.85;28.42
75363;DHT22;64122;51.988;5.892;2023-02-28T10:56:00;9.86;28.38
75363;DHT22;64122;51.988;5.892;2023-02-28T10:58:32;9.85;28.78
75363;DHT22;64122;51.988;5.892;2023-02-28T11:01:16;9.85;29.21
75363;DHT22;64122;51.988;5.892;2023-02-28T11:03:46;9.93;29.40
75363;DHT22;64122;51.988;5.892;2023-02-28T11:06:19;9.96;29.25
75363;DHT22;64122;51.988;5.892;2023-02-28T11:08:51;9.68;29.05
75363;DHT22;64122;51.988;5.892;2023-02-28T11:11:24;9.55;29.68
75363;DHT22;64122;51.988;5.892;2023-02-28T11:13:56;9.54;29.63
75363;DHT22;64122;51.988;5.892;2023-02-28T11:16:44;9.40;30.29
75363;DHT22;64122;51.988;5.892;2023-02-28T11:19:19;9.20;30.32
75363;DHT22;64122;51.988;5.892;2023-02-28T11:21:53;9.27;30.51
75363;DHT22;64122;51.988;5.892;2023-02-28T11:24:26;9.24;30.25
75363;DHT22;64122;51.988;5.892;2023-02-28T11:26:56;9.21;30.35
75363;DHT22;64122;51.988;5.892;2023-02-28T11:29:27;9.20;30.39
75363;DHT22;64122;51.988;5.892;2023-02-28T11:32:16;9.17;30.62
75363;DHT22;64122;51.988;5.892;2023-02-28T11:34:47;9.15;30.48
75363;DHT22;64122;51.988;5.892;2023-02-28T11:37:29;9.22;30.71
75363;DHT22;64122;51.988;5.892;2023-02-28T11:39:59;9.24;30.29
75363;DHT22;64122;51.988;5.892;2023-02-28T11:42:38;9.31;30.32
75363;DHT22;64122;51.988;5.892;2023-02-28T11:45:21;9.30;30.30
75363;DHT22;64122;51.988;5.892;2023-02-28T11:47:59;9.27;30.42
75363;DHT22;64122;51.988;5.892;2023-02-28T11:50:45;9.27;30.06
75363;DHT22;64122;51.988;5.892;2023-02-28T11:53:22;9.34;29.64
75363;DHT22;64122;51.988;5.892;2023-02-28T11:56:03;9.27;29.77
75363;DHT22;64122;51.988;5.892;2023-02-28T11:58:49;9.15;30.01
75363;DHT22;64122;51.988;5.892;2023-02-28T12:01:32;9.15;30.11
75363;DHT22;64122;51.988;5.892;2023-02-28T12:04:20;9.10;29.96
75363;DHT22;64122;51.988;5.892;2023-02-28T12:07:00;9.06;30.15
75363;DHT22;64122;51.988;5.892;2023-02-28T12:09:42;9.07;30.24
75363;DHT22;64122;51.988;5.892;2023-02-28T12:12:21;9.07;30.00
75363;DHT22;64122;51.988;5.892;2023-02-28T12:15:11;9.09;30.04
75363;DHT22;64122;51.988;5.892;2023-02-28T12:17:54;9.11;30.04
75363;DHT22;64122;51.988;5.892;2023-02-28T12:20:33;9.11;30.47
75363;DHT22;64122;51.988;5.892;2023-02-28T12:23:21;9.04;30.03
75363;DHT22;64122;51.988;5.892;2023-02-28T12:26:07;9.03;30.14
75363;DHT22;64122;51.988;5.892;2023-02-28T12:28:44;9.07;29.82
75363;DHT22;64122;51.988;5.892;2023-02-28T12:31:18;9.08;30.24
75363;DHT22;64122;51.988;5.892;2023-02-28T12:33:52;9.17;29.96
75363;DHT22;64122;51.988;5.892;2023-02-28T12:36:24;9.16;29.83
75363;DHT22;64122;51.988;5.892;2023-02-28T12:38:58;9.21;29.90
75363;DHT22;64122;51.988;5.892;2023-02-28T12:41:33;9.15;29.74
75363;DHT22;64122;51.988;5.892;2023-02-28T12:44:07;8.97;29.78
75363;DHT22;64122;51.988;5.892;2023-02-28T12:46:41;8.92;30.29
75363;DHT22;64122;51.988;5.892;2023-02-28T12:49:12;8.77;30.65
75363;DHT22;64122;51.988;5.892;2023-02-28T12:51:45;8.91;29.57
75363;DHT22;64122;51.988;5.892;2023-02-28T12:54:21;8.91;29.66
75363;DHT22;64122;51.988;5.892;2023-02-28T12:56:58;8.97;29.55
75363;DHT22;64122;51.988;5.892;2023-02-28T12:59:35;9.01;29.30
75363;DHT22;64122;51.988;5.892;2023-02-28T13:05:16;8.90;28.87
75363;DHT22;64122;51.988;5.892;2023-02-28T13:08:11;8.83;29.29
75363;DHT22;64122;51.988;5.892;2023-02-28T13:10:48;8.89;29.58
75363;DHT22;64122;51.988;5.892;2023-02-28T13:13:22;8.95;29.52
75363;DHT22;64122;51.988;5.892;2023-02-28T13:16:03;8.96;29.58
75363;DHT22;64122;51.988;5.892;2023-02-28T13:18:35;8.95;29.03
75363;DHT22;64122;51.988;5.892;2023-02-28T13:21:06;8.74;29.76
75363;DHT22;64122;51.988;5.892;2023-02-28T13:24:00;8.77;29.60
75363;DHT22;64122;51.988;5.892;2023-02-28T13:29:34;8.94;29.64
75363;DHT22;64122;51.988;5.892;2023-02-28T13:32:30;8.97;29.34
75363;DHT22;64122;51.988;5.892;2023-02-28T13:38:21;9.07;29.35
75363;DHT22;64122;51.988;5.892;2023-02-28T13:40:54;9.14;29.58
75363;DHT22;64122;51.988;5.892;2023-02-28T13:43:59;9.23;29.55
75363;DHT22;64122;51.988;5.892;2023-02-28T13:46:29;9.22;29.39
75363;DHT22;64122;51.988;5.892;2023-02-28T13:49:19;9.24;29.48
75363;DHT22;64122;51.988;5.892;2023-02-28T13:51:49;9.16;29.55
75363;DHT22;64122;51.988;5.892;2023-02-28T13:54:26;9.03;29.82
75363;DHT22;64122;51.988;5.892;2023-02-28T13:57:12;9.01;29.84
75363;DHT22;64122;51.988;5.892;2023-02-28T13:59:53;9.07;29.39
75363;DHT22;64122;51.988;5.892;2023-02-28T14:02:48;8.96;29.96
75363;DHT22;64122;51.988;5.892;2023-02-28T14:05:21;9.04;30.00
75363;DHT22;64122;51.988;5.892;2023-02-28T14:07:55;9.10;29.98
75363;DHT22;64122;51.988;5.892;2023-02-28T14:10:28;8.95;29.88
75363;DHT22;64122;51.988;5.892;2023-02-28T14:13:02;8.86;30.45
75363;DHT22;64122;51.988;5.892;2023-02-28T14:15:49;9.01;30.25
75363;DHT22;64122;51.988;5.892;2023-02-28T14:18:27;9.05;30.48
75363;DHT22;64122;51.988;5.892;2023-02-28T14:21:18;9.15;30.39
75363;DHT22;64122;51.988;5.892;2023-02-28T14:24:13;9.17;30.08
75363;DHT22;64122;51.988;5.892;2023-02-28T14:30:10;9.15;30.11
75363;DHT22;64122;51.988;5.892;2023-02-28T14:32:45;9.18;30.48
75363;DHT22;64122;51.988;5.892;2023-02-28T14:35:22;9.23;30.15
75363;DHT22;64122;51.988;5.892;2023-02-28T14:37:57;9.31;30.01
75363;DHT22;64122;51.988;5.892;2023-02-28T14:40:29;9.34;30.38
75363;DHT22;64122;51.988;5.892;2023-02-28T14:43:01;9.33;30.12
75363;DHT22;64122;51.988;5.892;2023-02-28T14:45:35;9.22;30.35
75363;DHT22;64122;51.988;5.892;2023-02-28T14:48:09;9.23;30.32
75363;DHT22;64122;51.988;5.892;2023-02-28T14:50:38;9.26;30.06
75363;DHT22;64122;51.988;5.892;2023-02-28T14:53:17;9.26;30.06
75363;DHT22;64122;51.988;5.892;2023-02-28T14:55:48;9.27;30.00
75363;DHT22;64122;51.988;5.892;2023-02-28T14:58:23;9.22;29.64
75363;DHT22;64122;51.988;5.892;2023-02-28T15:00:57;9.21;30.03
75363;DHT22;64122;51.988;5.892;2023-02-28T15:03:31;9.21;30.19
75363;DHT22;64122;51.988;5.892;2023-02-28T15:06:03;9.14;30.20
75363;DHT22;64122;51.988;5.892;2023-02-28T15:08:33;9.17;30.47
75363;DHT22;64122;51.988;5.892;2023-02-28T15:11:05;9.09;30.50
75363;DHT22;64122;51.988;5.892;2023-02-28T15:13:39;9.06;30.71
75363;DHT22;64122;51.988;5.892;2023-02-28T15:16:17;9.03;30.54
75363;DHT22;64122;51.988;5.892;2023-02-28T15:18:49;9.02;30.67
75363;DHT22;64122;51.988;5.892;2023-02-28T15:21:21;9.06;30.74
75363;DHT22;64122;51.988;5.892;2023-02-28T15:23:54;8.97;30.48
75363;DHT22;64122;51.988;5.892;2023-02-28T15:26:27;8.91;30.56
75363;DHT22;64122;51.988;5.892;2023-02-28T15:28:59;8.85;30.54
75363;DHT22;64122;51.988;5.892;2023-02-28T15:31:40;8.80;30.24
75363;DHT22;64122;51.988;5.892;2023-02-28T15:34:19;8.74;30.03
75363;DHT22;64122;51.988;5.892;2023-02-28T15:36:49;8.73;30.19
75363;DHT22;64122;51.988;5.892;2023-02-28T15:39:20;8.74;30.05
75363;DHT22;64122;51.988;5.892;2023-02-28T15:41:50;8.76;30.48
75363;DHT22;64122;51.988;5.892;2023-02-28T15:44:28;8.71;30.45
75363;DHT22;64122;51.988;5.892;2023-02-28T15:47:06;8.65;30.42
75363;DHT22;64122;51.988;5.892;2023-02-28T15:49:39;8.62;30.58
75363;DHT22;64122;51.988;5.892;2023-02-28T15:52:13;8.62;30.87
75363;DHT22;64122;51.988;5.892;2023-02-28T15:54:44;8.60;30.87
75363;DHT22;64122;51.988;5.892;2023-02-28T15:57:18;8.55;30.86
75363;DHT22;64122;51.988;5.892;2023-02-28T15:59:51;8.38;30.99
75363;DHT22;64122;51.988;5.892;2023-02-28T16:02:31;8.33;31.73
75363;DHT22;64122;51.988;5.892;2023-02-28T16:05:18;8.33;31.68
75363;DHT22;64122;51.988;5.892;2023-02-28T16:07:47;8.35;31.48
75363;DHT22;64122;51.988;5.892;2023-02-28T16:10:17;8.33;31.45
75363;DHT22;64122;51.988;5.892;2023-02-28T16:12:46;8.24;31.76
75363;DHT22;64122;51.988;5.892;2023-02-28T16:15:19;8.22;32.26
75363;DHT22;64122;51.988;5.892;2023-02-28T16:17:53;8.21;32.12
75363;DHT22;64122;51.988;5.892;2023-02-28T16:20:24;8.20;32.11
75363;DHT22;64122;51.988;5.892;2023-02-28T16:22:54;8.15;32.32
75363;DHT22;64122;51.988;5.892;2023-02-28T16:25:34;8.09;32.67
75363;DHT22;64122;51.988;5.892;2023-02-28T16:28:05;8.01;32.76
75363;DHT22;64122;51.988;5.892;2023-02-28T16:30:37;7.94;32.87
75363;DHT22;64122;51.988;5.892;2023-02-28T16:33:09;7.92;32.93
75363;DHT22;64122;51.988;5.892;2023-02-28T16:35:39;7.89;33.25
75363;DHT22;64122;51.988;5.892;2023-02-28T16:38:08;7.86;33.51
75363;DHT22;64122;51.988;5.892;2023-02-28T16:40:37;7.82;33.76
75363;DHT22;64122;51.988;5.892;2023-02-28T16:43:11;7.76;33.76
75363;DHT22;64122;51.988;5.892;2023-02-28T16:45:45;7.73;34.18